Main page
METAR-TAF:

METAR-TAF

Airports :

Rajkot Airport

Rajkot, India

latitude: 22-18N, longitude: 070-47E, elevation: 134 m

Current weather observation

The report was made 2 hours and 22 minutes ago, at 18:00 UTC
Wind 8 kt from the West
Temperature 18°C
Humidity 52%
Pressure 1010 hPa
Visibility: 6000 m

METAR: VARK 221800Z 27008KT 6000 NSC 18/08 Q1010 NOSIG

Time: 01:52 (20:22 UTC)

Forecast

The report was made 3 hours and 22 minutes ago, at 17:00 UTC
Forecast valid from 22 at 18 UTC to 23 at 03 UTC
Wind 8 kt from the Northwest
Visibility: 4000 m
smoke
Becoming
from 23 at 01 UTC to 23 at 03 UTC
Wind 5 kt from the North
Visibility: 2500 m
mist, haze

TAF: VARK 221700Z 2218/2303 32008KT 4000 FU NSC BECMG 2301/2303 36005KT 2500 BR HZ

Weather observations and forecasts of more than 4000 airports (METAR and TAF reports).

The available stations are represented by yellow and red dots on the map.

Hover mouse over dot to see the name of the station.

Then click to see weather observations and forecasts.

To change the map : click on the green buttons with a black cross to zoom in, on the green button with a dash to zoom out, or on the green arrows for adjacent maps.


METAR-TAF: